GRZ523 Details

Departure: Eareckson Air Station (PASY)
Arrival: Ted Stevens Anchorage International Airport (PANC)
Route: SYA G8 ADK G1 ELF G12 HBT G2 RWO ODK AMOTT4


Current Weather Information
PASY 252259Z 25028G38KT 7SM FEW035 FEW050 01/M05 A2907 RMK PK WND 24040/2256 SLP846 RVRNO FZRANO $
PANC 252353Z 33005KT 10SM FEW060 BKN230 08/M01 A3020 RMK AO2 SLP230 4/006 T00831011 10089 20033 58011